sensor_id;sensor_type;location;lat;lon;timestamp;P1;durP1;ratioP1;P2;durP2;ratioP2
8159;SDS011;27404;52.398;9.646;2023-04-15T00:00:14;6.53;;;4.20;;
8159;SDS011;27404;52.398;9.646;2023-04-15T00:02:41;6.10;;;4.20;;
8159;SDS011;27404;52.398;9.646;2023-04-15T00:05:08;7.93;;;4.90;;
8159;SDS011;27404;52.398;9.646;2023-04-15T00:07:34;6.70;;;4.00;;
8159;SDS011;27404;52.398;9.646;2023-04-15T00:10:00;6.60;;;4.30;;
8159;SDS011;27404;52.398;9.646;2023-04-15T00:12:26;5.53;;;4.30;;
8159;SDS011;27404;52.398;9.646;2023-04-15T00:14:52;8.10;;;4.70;;
8159;SDS011;27404;52.398;9.646;2023-04-15T00:17:18;7.93;;;4.20;;
8159;SDS011;27404;52.398;9.646;2023-04-15T00:19:44;6.63;;;4.10;;
8159;SDS011;27404;52.398;9.646;2023-04-15T00:22:10;7.93;;;4.60;;
8159;SDS011;27404;52.398;9.646;2023-04-15T00:24:36;6.37;;;4.57;;
8159;SDS011;27404;52.398;9.646;2023-04-15T00:27:01;6.53;;;4.00;;
8159;SDS011;27404;52.398;9.646;2023-04-15T00:29:27;5.77;;;3.77;;
8159;SDS011;27404;52.398;9.646;2023-04-15T00:31:53;6.27;;;4.57;;
8159;SDS011;27404;52.398;9.646;2023-04-15T00:34:19;9.30;;;4.30;;
8159;SDS011;27404;52.398;9.646;2023-04-15T00:36:44;7.33;;;4.53;;
8159;SDS011;27404;52.398;9.646;2023-04-15T00:39:10;6.70;;;4.17;;
8159;SDS011;27404;52.398;9.646;2023-04-15T00:41:35;5.70;;;4.33;;
8159;SDS011;27404;52.398;9.646;2023-04-15T00:44:04;8.13;;;4.37;;
8159;SDS011;27404;52.398;9.646;2023-04-15T00:46:30;7.17;;;4.70;;
8159;SDS011;27404;52.398;9.646;2023-04-15T00:48:57;6.23;;;4.70;;
8159;SDS011;27404;52.398;9.646;2023-04-15T00:51:23;7.77;;;5.00;;
8159;SDS011;27404;52.398;9.646;2023-04-15T00:53:49;8.10;;;5.20;;
8159;SDS011;27404;52.398;9.646;2023-04-15T00:56:15;7.90;;;5.40;;
8159;SDS011;27404;52.398;9.646;2023-04-15T00:58:41;8.13;;;5.60;;
8159;SDS011;27404;52.398;9.646;2023-04-15T01:01:06;7.67;;;5.40;;
8159;SDS011;27404;52.398;9.646;2023-04-15T01:03:32;8.73;;;5.47;;
8159;SDS011;27404;52.398;9.646;2023-04-15T01:05:57;9.13;;;5.97;;
8159;SDS011;27404;52.398;9.646;2023-04-15T01:08:27;8.47;;;5.57;;
8159;SDS011;27404;52.398;9.646;2023-04-15T01:10:54;10.77;;;6.10;;
8159;SDS011;27404;52.398;9.646;2023-04-15T01:13:21;8.30;;;6.17;;
8159;SDS011;27404;52.398;9.646;2023-04-15T01:15:48;13.93;;;6.30;;
8159;SDS011;27404;52.398;9.646;2023-04-15T01:18:15;10.43;;;6.23;;
8159;SDS011;27404;52.398;9.646;2023-04-15T01:20:41;10.80;;;5.63;;
8159;SDS011;27404;52.398;9.646;2023-04-15T01:23:07;9.63;;;6.50;;
8159;SDS011;27404;52.398;9.646;2023-04-15T01:25:32;10.27;;;6.80;;
8159;SDS011;27404;52.398;9.646;2023-04-15T01:27:58;11.07;;;7.27;;
8159;SDS011;27404;52.398;9.646;2023-04-15T01:30:25;10.40;;;6.73;;
8159;SDS011;27404;52.398;9.646;2023-04-15T01:32:51;12.87;;;8.40;;
8159;SDS011;27404;52.398;9.646;2023-04-15T01:35:17;10.40;;;7.47;;
8159;SDS011;27404;52.398;9.646;2023-04-15T01:37:43;13.57;;;7.70;;
8159;SDS011;27404;52.398;9.646;2023-04-15T01:40:09;12.50;;;7.70;;
8159;SDS011;27404;52.398;9.646;2023-04-15T01:42:35;14.40;;;7.37;;
8159;SDS011;27404;52.398;9.646;2023-04-15T01:45:01;10.47;;;7.27;;
8159;SDS011;27404;52.398;9.646;2023-04-15T01:47:27;13.90;;;7.93;;
8159;SDS011;27404;52.398;9.646;2023-04-15T01:49:53;14.87;;;7.97;;
8159;SDS011;27404;52.398;9.646;2023-04-15T01:52:18;12.27;;;7.47;;
8159;SDS011;27404;52.398;9.646;2023-04-15T01:54:44;11.40;;;7.53;;
8159;SDS011;27404;52.398;9.646;2023-04-15T01:57:10;9.50;;;7.20;;
8159;SDS011;27404;52.398;9.646;2023-04-15T01:59:36;11.07;;;7.77;;
8159;SDS011;27404;52.398;9.646;2023-04-15T02:02:02;13.23;;;8.47;;
8159;SDS011;27404;52.398;9.646;2023-04-15T02:04:28;13.73;;;8.37;;
8159;SDS011;27404;52.398;9.646;2023-04-15T02:06:53;14.33;;;8.13;;
8159;SDS011;27404;52.398;9.646;2023-04-15T02:09:19;12.53;;;8.30;;
8159;SDS011;27404;52.398;9.646;2023-04-15T02:11:45;12.60;;;8.20;;
8159;SDS011;27404;52.398;9.646;2023-04-15T02:14:10;12.83;;;8.20;;
8159;SDS011;27404;52.398;9.646;2023-04-15T02:16:36;13.37;;;8.30;;
8159;SDS011;27404;52.398;9.646;2023-04-15T02:19:01;15.50;;;8.33;;
8159;SDS011;27404;52.398;9.646;2023-04-15T02:21:27;13.50;;;8.10;;
8159;SDS011;27404;52.398;9.646;2023-04-15T02:23:53;14.13;;;8.40;;
8159;SDS011;27404;52.398;9.646;2023-04-15T02:26:19;11.57;;;8.23;;
8159;SDS011;27404;52.398;9.646;2023-04-15T02:28:45;11.97;;;8.20;;
8159;SDS011;27404;52.398;9.646;2023-04-15T02:31:11;14.00;;;8.80;;
8159;SDS011;27404;52.398;9.646;2023-04-15T02:33:36;14.57;;;8.93;;
8159;SDS011;27404;52.398;9.646;2023-04-15T02:36:02;16.07;;;8.63;;
8159;SDS011;27404;52.398;9.646;2023-04-15T02:38:29;14.57;;;9.47;;
8159;SDS011;27404;52.398;9.646;2023-04-15T02:40:55;14.33;;;9.27;;
8159;SDS011;27404;52.398;9.646;2023-04-15T02:43:21;13.53;;;8.93;;
8159;SDS011;27404;52.398;9.646;2023-04-15T02:45:47;16.03;;;9.10;;
8159;SDS011;27404;52.398;9.646;2023-04-15T02:48:13;14.10;;;9.00;;
8159;SDS011;27404;52.398;9.646;2023-04-15T02:50:38;16.37;;;9.70;;
8159;SDS011;27404;52.398;9.646;2023-04-15T02:53:04;14.77;;;8.77;;
8159;SDS011;27404;52.398;9.646;2023-04-15T02:55:30;15.03;;;8.57;;
8159;SDS011;27404;52.398;9.646;2023-04-15T02:57:56;14.20;;;8.80;;
8159;SDS011;27404;52.398;9.646;2023-04-15T03:00:24;14.10;;;8.73;;
8159;SDS011;27404;52.398;9.646;2023-04-15T03:02:50;14.97;;;9.07;;
8159;SDS011;27404;52.398;9.646;2023-04-15T03:05:20;16.50;;;9.57;;
8159;SDS011;27404;52.398;9.646;2023-04-15T03:07:49;14.40;;;9.47;;
8159;SDS011;27404;52.398;9.646;2023-04-15T03:10:15;16.97;;;9.57;;
8159;SDS011;27404;52.398;9.646;2023-04-15T03:12:41;17.17;;;11.00;;
8159;SDS011;27404;52.398;9.646;2023-04-15T03:15:06;14.80;;;9.13;;
8159;SDS011;27404;52.398;9.646;2023-04-15T03:17:32;15.97;;;9.70;;
8159;SDS011;27404;52.398;9.646;2023-04-15T03:19:58;15.67;;;10.17;;
8159;SDS011;27404;52.398;9.646;2023-04-15T03:22:23;18.43;;;11.47;;
8159;SDS011;27404;52.398;9.646;2023-04-15T03:24:50;17.87;;;11.23;;
8159;SDS011;27404;52.398;9.646;2023-04-15T03:27:16;18.60;;;11.70;;
8159;SDS011;27404;52.398;9.646;2023-04-15T03:29:41;17.63;;;11.23;;
8159;SDS011;27404;52.398;9.646;2023-04-15T03:32:06;17.30;;;11.53;;
8159;SDS011;27404;52.398;9.646;2023-04-15T03:34:32;19.27;;;12.20;;
8159;SDS011;27404;52.398;9.646;2023-04-15T03:36:57;19.47;;;11.63;;
8159;SDS011;27404;52.398;9.646;2023-04-15T03:39:23;18.00;;;11.50;;
8159;SDS011;27404;52.398;9.646;2023-04-15T03:41:48;18.33;;;11.83;;
8159;SDS011;27404;52.398;9.646;2023-04-15T03:44:13;19.67;;;12.93;;
8159;SDS011;27404;52.398;9.646;2023-04-15T03:46:39;20.23;;;11.90;;
8159;SDS011;27404;52.398;9.646;2023-04-15T03:49:05;19.50;;;12.17;;
8159;SDS011;27404;52.398;9.646;2023-04-15T03:51:31;19.47;;;11.23;;
8159;SDS011;27404;52.398;9.646;2023-04-15T03:53:56;22.10;;;13.10;;
8159;SDS011;27404;52.398;9.646;2023-04-15T03:56:22;23.07;;;12.87;;
8159;SDS011;27404;52.398;9.646;2023-04-15T03:58:48;21.93;;;14.00;;
8159;SDS011;27404;52.398;9.646;2023-04-15T04:01:14;22.83;;;13.40;;
8159;SDS011;27404;52.398;9.646;2023-04-15T04:03:40;18.47;;;12.83;;
8159;SDS011;27404;52.398;9.646;2023-04-15T04:06:06;19.97;;;12.77;;
8159;SDS011;27404;52.398;9.646;2023-04-15T04:08:32;22.00;;;13.63;;
8159;SDS011;27404;52.398;9.646;2023-04-15T04:10:57;21.67;;;12.37;;
8159;SDS011;27404;52.398;9.646;2023-04-15T04:13:23;23.27;;;13.37;;
8159;SDS011;27404;52.398;9.646;2023-04-15T04:15:48;20.30;;;13.57;;
8159;SDS011;27404;52.398;9.646;2023-04-15T04:18:13;22.23;;;13.07;;
8159;SDS011;27404;52.398;9.646;2023-04-15T04:20:39;23.87;;;14.33;;
8159;SDS011;27404;52.398;9.646;2023-04-15T04:23:05;25.83;;;15.70;;
8159;SDS011;27404;52.398;9.646;2023-04-15T04:25:30;55.60;;;43.00;;
8159;SDS011;27404;52.398;9.646;2023-04-15T04:27:56;25.10;;;15.17;;
8159;SDS011;27404;52.398;9.646;2023-04-15T04:30:21;98.20;;;73.83;;
8159;SDS011;27404;52.398;9.646;2023-04-15T04:32:48;33.67;;;21.43;;
8159;SDS011;27404;52.398;9.646;2023-04-15T04:35:14;254.60;;;188.60;;
8159;SDS011;27404;52.398;9.646;2023-04-15T04:37:40;513.83;;;407.10;;
8159;SDS011;27404;52.398;9.646;2023-04-15T04:40:06;327.80;;;230.23;;
8159;SDS011;27404;52.398;9.646;2023-04-15T04:42:32;78.03;;;50.23;;
8159;SDS011;27404;52.398;9.646;2023-04-15T04:44:57;294.07;;;206.80;;
8159;SDS011;27404;52.398;9.646;2023-04-15T04:47:23;267.07;;;206.87;;
8159;SDS011;27404;52.398;9.646;2023-04-15T04:49:48;667.60;;;581.37;;
8159;SDS011;27404;52.398;9.646;2023-04-15T04:52:13;685.40;;;610.70;;
8159;SDS011;27404;52.398;9.646;2023-04-15T04:54:39;328.90;;;259.13;;
8159;SDS011;27404;52.398;9.646;2023-04-15T04:57:05;111.67;;;84.57;;
8159;SDS011;27404;52.398;9.646;2023-04-15T04:59:32;184.47;;;162.00;;
8159;SDS011;27404;52.398;9.646;2023-04-15T05:01:58;64.33;;;52.97;;
8159;SDS011;27404;52.398;9.646;2023-04-15T05:04:23;59.23;;;52.80;;
8159;SDS011;27404;52.398;9.646;2023-04-15T05:06:50;76.27;;;68.97;;
8159;SDS011;27404;52.398;9.646;2023-04-15T05:09:16;26.43;;;18.57;;
8159;SDS011;27404;52.398;9.646;2023-04-15T05:11:41;36.40;;;24.50;;
8159;SDS011;27404;52.398;9.646;2023-04-15T05:14:07;28.10;;;16.97;;
8159;SDS011;27404;52.398;9.646;2023-04-15T05:16:32;27.53;;;16.37;;
8159;SDS011;27404;52.398;9.646;2023-04-15T05:18:58;26.80;;;15.87;;
8159;SDS011;27404;52.398;9.646;2023-04-15T05:21:23;27.80;;;19.13;;
8159;SDS011;27404;52.398;9.646;2023-04-15T05:23:48;27.80;;;16.33;;
8159;SDS011;27404;52.398;9.646;2023-04-15T05:26:14;26.33;;;15.80;;
8159;SDS011;27404;52.398;9.646;2023-04-15T05:28:40;26.77;;;15.90;;
8159;SDS011;27404;52.398;9.646;2023-04-15T05:31:05;26.43;;;15.77;;
8159;SDS011;27404;52.398;9.646;2023-04-15T05:33:31;283.77;;;102.20;;
8159;SDS011;27404;52.398;9.646;2023-04-15T05:35:56;55.00;;;28.13;;
8159;SDS011;27404;52.398;9.646;2023-04-15T05:38:22;29.13;;;16.17;;
8159;SDS011;27404;52.398;9.646;2023-04-15T05:40:47;26.53;;;16.03;;
8159;SDS011;27404;52.398;9.646;2023-04-15T05:43:13;26.33;;;16.23;;
8159;SDS011;27404;52.398;9.646;2023-04-15T05:45:38;27.83;;;16.60;;
8159;SDS011;27404;52.398;9.646;2023-04-15T05:48:04;24.33;;;14.87;;
8159;SDS011;27404;52.398;9.646;2023-04-15T05:50:29;28.20;;;16.13;;
8159;SDS011;27404;52.398;9.646;2023-04-15T05:52:54;26.43;;;15.40;;
8159;SDS011;27404;52.398;9.646;2023-04-15T05:55:20;25.07;;;14.93;;
8159;SDS011;27404;52.398;9.646;2023-04-15T05:57:46;26.43;;;14.37;;
8159;SDS011;27404;52.398;9.646;2023-04-15T06:00:12;24.67;;;14.37;;
8159;SDS011;27404;52.398;9.646;2023-04-15T06:02:38;25.43;;;14.13;;
8159;SDS011;27404;52.398;9.646;2023-04-15T06:05:04;23.90;;;14.33;;
8159;SDS011;27404;52.398;9.646;2023-04-15T06:07:33;21.60;;;13.30;;
8159;SDS011;27404;52.398;9.646;2023-04-15T06:10:01;21.70;;;12.90;;
8159;SDS011;27404;52.398;9.646;2023-04-15T06:12:27;20.07;;;11.93;;
8159;SDS011;27404;52.398;9.646;2023-04-15T06:14:53;20.50;;;12.63;;
8159;SDS011;27404;52.398;9.646;2023-04-15T06:17:18;20.40;;;12.23;;
8159;SDS011;27404;52.398;9.646;2023-04-15T06:19:44;21.47;;;12.07;;
8159;SDS011;27404;52.398;9.646;2023-04-15T06:22:09;19.70;;;11.90;;
8159;SDS011;27404;52.398;9.646;2023-04-15T06:24:35;21.43;;;12.70;;
8159;SDS011;27404;52.398;9.646;2023-04-15T06:27:01;22.80;;;11.70;;
8159;SDS011;27404;52.398;9.646;2023-04-15T06:29:27;16.90;;;10.27;;
8159;SDS011;27404;52.398;9.646;2023-04-15T06:31:53;16.37;;;10.20;;
8159;SDS011;27404;52.398;9.646;2023-04-15T06:34:20;15.63;;;10.00;;
8159;SDS011;27404;52.398;9.646;2023-04-15T06:36:45;19.10;;;11.20;;
8159;SDS011;27404;52.398;9.646;2023-04-15T06:39:11;16.80;;;10.43;;
8159;SDS011;27404;52.398;9.646;2023-04-15T06:41:36;14.30;;;9.03;;
8159;SDS011;27404;52.398;9.646;2023-04-15T06:44:02;251.37;;;99.37;;
8159;SDS011;27404;52.398;9.646;2023-04-15T06:46:27;20.83;;;12.20;;
8159;SDS011;27404;52.398;9.646;2023-04-15T06:48:53;16.23;;;9.37;;
8159;SDS011;27404;52.398;9.646;2023-04-15T06:51:18;14.23;;;8.60;;
8159;SDS011;27404;52.398;9.646;2023-04-15T06:53:44;14.30;;;8.73;;
8159;SDS011;27404;52.398;9.646;2023-04-15T06:56:09;12.90;;;8.10;;
8159;SDS011;27404;52.398;9.646;2023-04-15T06:58:35;12.03;;;7.30;;
8159;SDS011;27404;52.398;9.646;2023-04-15T07:01:00;11.97;;;7.23;;
8159;SDS011;27404;52.398;9.646;2023-04-15T07:03:26;12.37;;;8.10;;
8159;SDS011;27404;52.398;9.646;2023-04-15T07:05:51;12.47;;;7.73;;
8159;SDS011;27404;52.398;9.646;2023-04-15T07:08:18;11.97;;;7.73;;
8159;SDS011;27404;52.398;9.646;2023-04-15T07:10:43;12.20;;;7.40;;
8159;SDS011;27404;52.398;9.646;2023-04-15T07:13:10;11.70;;;7.40;;
8159;SDS011;27404;52.398;9.646;2023-04-15T07:15:35;12.23;;;7.00;;
8159;SDS011;27404;52.398;9.646;2023-04-15T07:18:01;11.30;;;6.37;;
8159;SDS011;27404;52.398;9.646;2023-04-15T07:20:26;11.30;;;6.47;;
8159;SDS011;27404;52.398;9.646;2023-04-15T07:22:52;10.57;;;6.73;;
8159;SDS011;27404;52.398;9.646;2023-04-15T07:25:17;13.17;;;6.00;;
8159;SDS011;27404;52.398;9.646;2023-04-15T07:27:43;11.77;;;6.33;;
8159;SDS011;27404;52.398;9.646;2023-04-15T07:30:09;10.07;;;6.43;;
8159;SDS011;27404;52.398;9.646;2023-04-15T07:32:36;11.13;;;6.57;;
8159;SDS011;27404;52.398;9.646;2023-04-15T07:35:02;9.90;;;6.47;;
8159;SDS011;27404;52.398;9.646;2023-04-15T07:37:27;12.63;;;6.40;;
8159;SDS011;27404;52.398;9.646;2023-04-15T07:39:53;10.23;;;6.30;;
8159;SDS011;27404;52.398;9.646;2023-04-15T07:42:19;8.23;;;5.60;;
8159;SDS011;27404;52.398;9.646;2023-04-15T07:44:45;9.80;;;6.17;;
8159;SDS011;27404;52.398;9.646;2023-04-15T07:47:11;9.20;;;5.83;;
8159;SDS011;27404;52.398;9.646;2023-04-15T07:49:36;10.67;;;6.83;;
8159;SDS011;27404;52.398;9.646;2023-04-15T07:52:02;12.57;;;6.80;;
8159;SDS011;27404;52.398;9.646;2023-04-15T07:54:27;11.40;;;6.17;;
8159;SDS011;27404;52.398;9.646;2023-04-15T07:56:53;8.40;;;6.13;;
8159;SDS011;27404;52.398;9.646;2023-04-15T07:59:20;9.43;;;6.10;;
8159;SDS011;27404;52.398;9.646;2023-04-15T08:01:45;11.07;;;6.57;;
8159;SDS011;27404;52.398;9.646;2023-04-15T08:04:11;8.53;;;5.63;;
8159;SDS011;27404;52.398;9.646;2023-04-15T08:06:36;23.30;;;12.30;;
8159;SDS011;27404;52.398;9.646;2023-04-15T08:09:03;19.47;;;12.30;;
8159;SDS011;27404;52.398;9.646;2023-04-15T08:11:30;22.23;;;13.80;;
8159;SDS011;27404;52.398;9.646;2023-04-15T08:13:55;12.40;;;7.53;;
8159;SDS011;27404;52.398;9.646;2023-04-15T08:16:25;9.60;;;5.90;;
8159;SDS011;27404;52.398;9.646;2023-04-15T08:18:52;8.67;;;5.97;;
8159;SDS011;27404;52.398;9.646;2023-04-15T08:21:19;10.33;;;5.63;;
8159;SDS011;27404;52.398;9.646;2023-04-15T08:23:46;7.97;;;5.33;;
8159;SDS011;27404;52.398;9.646;2023-04-15T08:26:13;7.40;;;4.80;;
8159;SDS011;27404;52.398;9.646;2023-04-15T08:28:40;11.93;;;5.37;;
8159;SDS011;27404;52.398;9.646;2023-04-15T08:31:06;8.27;;;5.77;;
8159;SDS011;27404;52.398;9.646;2023-04-15T08:33:33;11.90;;;5.77;;
8159;SDS011;27404;52.398;9.646;2023-04-15T08:35:58;8.13;;;5.47;;
8159;SDS011;27404;52.398;9.646;2023-04-15T08:38:24;7.40;;;4.40;;
8159;SDS011;27404;52.398;9.646;2023-04-15T08:40:49;6.63;;;4.90;;
8159;SDS011;27404;52.398;9.646;2023-04-15T08:43:20;7.53;;;5.13;;
8159;SDS011;27404;52.398;9.646;2023-04-15T08:45:51;6.17;;;4.40;;
8159;SDS011;27404;52.398;9.646;2023-04-15T08:48:17;6.37;;;4.20;;
8159;SDS011;27404;52.398;9.646;2023-04-15T08:50:43;7.80;;;4.97;;
8159;SDS011;27404;52.398;9.646;2023-04-15T08:53:10;6.37;;;4.83;;
8159;SDS011;27404;52.398;9.646;2023-04-15T08:55:38;6.60;;;4.40;;
8159;SDS011;27404;52.398;9.646;2023-04-15T08:58:11;9.33;;;4.63;;
8159;SDS011;27404;52.398;9.646;2023-04-15T09:00:38;7.73;;;4.43;;
8159;SDS011;27404;52.398;9.646;2023-04-15T09:03:04;11.07;;;4.70;;
8159;SDS011;27404;52.398;9.646;2023-04-15T09:05:32;5.10;;;3.70;;
8159;SDS011;27404;52.398;9.646;2023-04-15T09:07:58;5.87;;;3.80;;
8159;SDS011;27404;52.398;9.646;2023-04-15T09:10:24;6.53;;;4.47;;
8159;SDS011;27404;52.398;9.646;2023-04-15T09:12:50;8.77;;;4.43;;
8159;SDS011;27404;52.398;9.646;2023-04-15T09:15:15;42.53;;;21.27;;
8159;SDS011;27404;52.398;9.646;2023-04-15T09:17:44;9.37;;;6.40;;
8159;SDS011;27404;52.398;9.646;2023-04-15T09:20:11;7.33;;;4.63;;
8159;SDS011;27404;52.398;9.646;2023-04-15T09:22:41;7.00;;;4.60;;
8159;SDS011;27404;52.398;9.646;2023-04-15T09:27:46;6.93;;;4.53;;
8159;SDS011;27404;52.398;9.646;2023-04-15T09:30:16;8.90;;;6.80;;
8159;SDS011;27404;52.398;9.646;2023-04-15T09:33:14;8.37;;;5.40;;
8159;SDS011;27404;52.398;9.646;2023-04-15T09:35:35;8.87;;;5.17;;
8159;SDS011;27404;52.398;9.646;2023-04-15T09:38:07;8.20;;;5.53;;
8159;SDS011;27404;52.398;9.646;2023-04-15T09:40:34;8.87;;;5.37;;
8159;SDS011;27404;52.398;9.646;2023-04-15T09:43:01;7.40;;;5.23;;
8159;SDS011;27404;52.398;9.646;2023-04-15T09:45:28;7.97;;;5.70;;
8159;SDS011;27404;52.398;9.646;2023-04-15T09:47:54;8.57;;;5.80;;
8159;SDS011;27404;52.398;9.646;2023-04-15T09:50:21;10.07;;;6.10;;
8159;SDS011;27404;52.398;9.646;2023-04-15T09:52:53;10.10;;;5.83;;
8159;SDS011;27404;52.398;9.646;2023-04-15T09:55:18;12.53;;;6.87;;
8159;SDS011;27404;52.398;9.646;2023-04-15T09:57:44;11.27;;;6.70;;
8159;SDS011;27404;52.398;9.646;2023-04-15T10:00:11;12.07;;;7.17;;
8159;SDS011;27404;52.398;9.646;2023-04-15T10:02:38;8.47;;;5.87;;
8159;SDS011;27404;52.398;9.646;2023-04-15T10:05:06;11.03;;;6.47;;
8159;SDS011;27404;52.398;9.646;2023-04-15T10:07:34;15.23;;;8.67;;
8159;SDS011;27404;52.398;9.646;2023-04-15T10:10:00;10.43;;;7.20;;
8159;SDS011;27404;52.398;9.646;2023-04-15T10:12:28;13.17;;;7.93;;
8159;SDS011;27404;52.398;9.646;2023-04-15T10:14:58;13.93;;;8.90;;
8159;SDS011;27404;52.398;9.646;2023-04-15T10:17:27;29.17;;;13.20;;
8159;SDS011;27404;52.398;9.646;2023-04-15T10:19:57;14.47;;;9.10;;
8159;SDS011;27404;52.398;9.646;2023-04-15T10:22:28;17.70;;;10.20;;
8159;SDS011;27404;52.398;9.646;2023-04-15T10:24:55;15.37;;;8.77;;
8159;SDS011;27404;52.398;9.646;2023-04-15T10:27:21;16.73;;;9.70;;
8159;SDS011;27404;52.398;9.646;2023-04-15T10:29:50;20.57;;;10.13;;
8159;SDS011;27404;52.398;9.646;2023-04-15T10:32:19;17.87;;;9.27;;
8159;SDS011;27404;52.398;9.646;2023-04-15T10:34:46;17.53;;;10.57;;
8159;SDS011;27404;52.398;9.646;2023-04-15T10:37:18;20.07;;;11.70;;
8159;SDS011;27404;52.398;9.646;2023-04-15T10:39:57;21.40;;;12.10;;
8159;SDS011;27404;52.398;9.646;2023-04-15T10:42:23;21.40;;;12.57;;
8159;SDS011;27404;52.398;9.646;2023-04-15T10:44:49;21.93;;;11.63;;
8159;SDS011;27404;52.398;9.646;2023-04-15T10:47:17;24.03;;;12.87;;
8159;SDS011;27404;52.398;9.646;2023-04-15T10:49:51;23.63;;;13.37;;
8159;SDS011;27404;52.398;9.646;2023-04-15T10:52:22;27.30;;;14.97;;
8159;SDS011;27404;52.398;9.646;2023-04-15T10:54:50;30.40;;;17.92;;
8159;SDS011;27404;52.398;9.646;2023-04-15T10:57:46;29.53;;;15.07;;
8159;SDS011;27404;52.398;9.646;2023-04-15T11:00:17;28.43;;;14.63;;
8159;SDS011;27404;52.398;9.646;2023-04-15T11:02:52;26.30;;;15.60;;
8159;SDS011;27404;52.398;9.646;2023-04-15T11:05:21;27.80;;;15.10;;
8159;SDS011;27404;52.398;9.646;2023-04-15T11:08:07;31.77;;;16.60;;
8159;SDS011;27404;52.398;9.646;2023-04-15T11:13:01;32.17;;;17.07;;
8159;SDS011;27404;52.398;9.646;2023-04-15T11:15:39;29.97;;;16.20;;
8159;SDS011;27404;52.398;9.646;2023-04-15T11:18:16;32.20;;;16.67;;
8159;SDS011;27404;52.398;9.646;2023-04-15T11:20:43;33.07;;;17.43;;
8159;SDS011;27404;52.398;9.646;2023-04-15T11:23:11;38.53;;;19.17;;
8159;SDS011;27404;52.398;9.646;2023-04-15T11:25:37;37.23;;;19.33;;
8159;SDS011;27404;52.398;9.646;2023-04-15T11:28:03;61.73;;;27.83;;
8159;SDS011;27404;52.398;9.646;2023-04-15T11:30:29;66.17;;;29.17;;
8159;SDS011;27404;52.398;9.646;2023-04-15T11:32:57;46.20;;;22.07;;
8159;SDS011;27404;52.398;9.646;2023-04-15T11:35:28;42.80;;;20.00;;
8159;SDS011;27404;52.398;9.646;2023-04-15T11:37:54;39.20;;;20.87;;
8159;SDS011;27404;52.398;9.646;2023-04-15T11:40:23;41.80;;;21.13;;
8159;SDS011;27404;52.398;9.646;2023-04-15T11:43:04;44.47;;;21.47;;
8159;SDS011;27404;52.398;9.646;2023-04-15T11:45:37;42.00;;;21.53;;
8159;SDS011;27404;52.398;9.646;2023-04-15T11:48:15;47.63;;;23.27;;
8159;SDS011;27404;52.398;9.646;2023-04-15T11:50:40;49.30;;;23.50;;
8159;SDS011;27404;52.398;9.646;2023-04-15T11:53:07;49.60;;;23.40;;
8159;SDS011;27404;52.398;9.646;2023-04-15T11:55:46;48.17;;;24.57;;
8159;SDS011;27404;52.398;9.646;2023-04-15T11:58:17;50.07;;;25.07;;
8159;SDS011;27404;52.398;9.646;2023-04-15T12:00:54;51.10;;;25.97;;
8159;SDS011;27404;52.398;9.646;2023-04-15T12:03:28;50.73;;;24.57;;
8159;SDS011;27404;52.398;9.646;2023-04-15T12:08:47;57.37;;;25.00;;
8159;SDS011;27404;52.398;9.646;2023-04-15T12:11:27;54.17;;;26.00;;
8159;SDS011;27404;52.398;9.646;2023-04-15T12:13:56;58.22;;;32.75;;
8159;SDS011;27404;52.398;9.646;2023-04-15T12:16:23;59.20;;;28.73;;
8159;SDS011;27404;52.398;9.646;2023-04-15T12:18:50;53.50;;;27.70;;
8159;SDS011;27404;52.398;9.646;2023-04-15T12:21:23;52.13;;;27.03;;
8159;SDS011;27404;52.398;9.646;2023-04-15T12:23:50;62.67;;;29.40;;
8159;SDS011;27404;52.398;9.646;2023-04-15T12:26:24;51.57;;;26.40;;
8159;SDS011;27404;52.398;9.646;2023-04-15T12:28:59;59.77;;;28.90;;
8159;SDS011;27404;52.398;9.646;2023-04-15T12:31:29;59.77;;;28.87;;
8159;SDS011;27404;52.398;9.646;2023-04-15T12:33:55;57.73;;;29.07;;
8159;SDS011;27404;52.398;9.646;2023-04-15T12:36:25;60.43;;;30.13;;
8159;SDS011;27404;52.398;9.646;2023-04-15T12:38:50;59.30;;;30.23;;
8159;SDS011;27404;52.398;9.646;2023-04-15T12:41:16;62.03;;;31.83;;
8159;SDS011;27404;52.398;9.646;2023-04-15T12:43:45;58.87;;;29.57;;
8159;SDS011;27404;52.398;9.646;2023-04-15T12:46:13;61.33;;;29.73;;
8159;SDS011;27404;52.398;9.646;2023-04-15T12:48:39;64.33;;;30.83;;
8159;SDS011;27404;52.398;9.646;2023-04-15T12:51:05;60.30;;;31.17;;
8159;SDS011;27404;52.398;9.646;2023-04-15T12:53:30;64.57;;;33.00;;
8159;SDS011;27404;52.398;9.646;2023-04-15T12:55:56;64.53;;;31.90;;
8159;SDS011;27404;52.398;9.646;2023-04-15T12:58:21;62.30;;;31.43;;
8159;SDS011;27404;52.398;9.646;2023-04-15T13:00:47;68.40;;;33.63;;
8159;SDS011;27404;52.398;9.646;2023-04-15T13:03:13;68.70;;;35.40;;
8159;SDS011;27404;52.398;9.646;2023-04-15T13:05:39;64.03;;;31.83;;
8159;SDS011;27404;52.398;9.646;2023-04-15T13:08:05;63.97;;;33.37;;
8159;SDS011;27404;52.398;9.646;2023-04-15T13:10:31;59.93;;;32.50;;
8159;SDS011;27404;52.398;9.646;2023-04-15T13:12:57;59.83;;;32.40;;
8159;SDS011;27404;52.398;9.646;2023-04-15T13:15:22;66.53;;;33.80;;
8159;SDS011;27404;52.398;9.646;2023-04-15T13:17:48;55.07;;;30.03;;
8159;SDS011;27404;52.398;9.646;2023-04-15T13:20:14;60.27;;;30.53;;
8159;SDS011;27404;52.398;9.646;2023-04-15T13:22:40;58.80;;;32.30;;
8159;SDS011;27404;52.398;9.646;2023-04-15T13:25:05;60.87;;;31.07;;
8159;SDS011;27404;52.398;9.646;2023-04-15T13:27:32;60.13;;;31.97;;
8159;SDS011;27404;52.398;9.646;2023-04-15T13:29:58;50.20;;;28.30;;
8159;SDS011;27404;52.398;9.646;2023-04-15T13:32:24;49.00;;;29.53;;
8159;SDS011;27404;52.398;9.646;2023-04-15T13:34:49;46.57;;;27.50;;
8159;SDS011;27404;52.398;9.646;2023-04-15T13:37:15;51.93;;;28.77;;
8159;SDS011;27404;52.398;9.646;2023-04-15T13:39:40;48.03;;;28.00;;
8159;SDS011;27404;52.398;9.646;2023-04-15T13:42:06;44.23;;;25.23;;
8159;SDS011;27404;52.398;9.646;2023-04-15T13:44:31;41.93;;;25.17;;
8159;SDS011;27404;52.398;9.646;2023-04-15T13:46:57;47.37;;;26.67;;
8159;SDS011;27404;52.398;9.646;2023-04-15T13:49:22;42.00;;;24.43;;
8159;SDS011;27404;52.398;9.646;2023-04-15T13:51:48;42.07;;;24.70;;
8159;SDS011;27404;52.398;9.646;2023-04-15T13:54:14;39.20;;;23.90;;
8159;SDS011;27404;52.398;9.646;2023-04-15T13:56:40;43.13;;;24.17;;
8159;SDS011;27404;52.398;9.646;2023-04-15T13:59:05;40.03;;;23.03;;
8159;SDS011;27404;52.398;9.646;2023-04-15T14:01:33;38.63;;;24.17;;
8159;SDS011;27404;52.398;9.646;2023-04-15T14:03:59;37.47;;;22.20;;
8159;SDS011;27404;52.398;9.646;2023-04-15T14:06:24;37.80;;;22.67;;
8159;SDS011;27404;52.398;9.646;2023-04-15T14:08:51;36.90;;;21.60;;
8159;SDS011;27404;52.398;9.646;2023-04-15T14:11:17;35.77;;;21.57;;
8159;SDS011;27404;52.398;9.646;2023-04-15T14:13:42;32.97;;;20.23;;
8159;SDS011;27404;52.398;9.646;2023-04-15T14:16:08;28.63;;;19.07;;
8159;SDS011;27404;52.398;9.646;2023-04-15T14:18:34;32.63;;;19.70;;
8159;SDS011;27404;52.398;9.646;2023-04-15T14:20:59;29.60;;;19.97;;
8159;SDS011;27404;52.398;9.646;2023-04-15T14:23:25;32.40;;;19.60;;
8159;SDS011;27404;52.398;9.646;2023-04-15T14:25:50;30.60;;;20.47;;
8159;SDS011;27404;52.398;9.646;2023-04-15T14:28:16;31.37;;;20.20;;
8159;SDS011;27404;52.398;9.646;2023-04-15T14:30:41;32.47;;;20.73;;
8159;SDS011;27404;52.398;9.646;2023-04-15T14:33:07;32.77;;;20.17;;
8159;SDS011;27404;52.398;9.646;2023-04-15T14:35:32;33.70;;;19.50;;
8159;SDS011;27404;52.398;9.646;2023-04-15T14:37:58;28.37;;;19.43;;
8159;SDS011;27404;52.398;9.646;2023-04-15T14:40:23;27.70;;;18.27;;
8159;SDS011;27404;52.398;9.646;2023-04-15T14:42:49;31.43;;;19.80;;
8159;SDS011;27404;52.398;9.646;2023-04-15T14:45:14;30.70;;;19.43;;
8159;SDS011;27404;52.398;9.646;2023-04-15T14:47:40;28.40;;;19.37;;